Time;durP1;ratioP1;P1;durP2;ratioP2;P2;SDS_P1;SDS_P2;PMS_P1;PMS_P2;Temp;Humidity;BMP_temperature;BMP_pressure;BME280_temperature;BME280_humidity;BME280_pressure;Samples;Min_cycle;Max_cycle;Signal;HPM_P1;HPM_P2
2023/04/06 00:01:50;;;;;;;6.57;5.00;;;7.10;33.60;;;;;;5015658;28;20412;-50
2023/04/06 00:04:16;;;;;;;7.55;5.68;;;7.00;33.40;;;;;;5015478;28;20243;-50
2023/04/06 00:06:42;;;;;;;9.57;5.70;;;7.00;33.30;;;;;;5015302;28;20693;-50
2023/04/06 00:09:08;;;;;;;6.30;5.47;;;6.90;33.20;;;;;;5015644;28;20261;-50
2023/04/06 00:11:34;;;;;;;6.40;4.37;;;6.90;33.40;;;;;;5015310;28;20781;-50
2023/04/06 00:14:00;;;;;;;10.40;7.50;;;6.90;33.30;;;;;;5015032;28;20445;-51
2023/04/06 00:16:25;;;;;;;6.93;4.93;;;6.90;33.40;;;;;;5015466;28;20433;-51
2023/04/06 00:18:51;;;;;;;9.80;5.20;;;6.80;33.70;;;;;;5015166;28;20206;-50
2023/04/06 00:21:17;;;;;;;5.70;4.83;;;6.80;33.50;;;;;;5015008;28;20409;-50
2023/04/06 00:23:43;;;;;;;7.18;6.45;;;6.70;34.00;;;;;;5015035;28;20409;-50
2023/04/06 00:26:10;;;;;;;8.00;5.23;;;6.60;34.10;;;;;;5014899;28;20352;-50
2023/04/06 00:28:37;;;;;;;7.93;4.45;;;6.60;34.10;;;;;;5015288;28;20178;-51
2023/04/06 00:31:03;;;;;;;7.38;5.32;;;6.60;34.00;;;;;;5015223;28;20204;-50
2023/04/06 00:33:29;;;;;;;9.95;6.15;;;6.60;33.80;;;;;;5014717;28;20698;-50
2023/04/06 00:35:55;;;;;;;5.87;5.33;;;6.60;34.20;;;;;;5014753;28;20199;-50
2023/04/06 00:38:21;;;;;;;6.97;6.27;;;6.50;34.60;;;;;;5014948;28;20233;-50
2023/04/06 00:40:47;;;;;;;6.25;5.28;;;6.50;34.50;;;;;;5014889;28;20174;-50
2023/04/06 00:43:13;;;;;;;6.67;5.67;;;6.40;34.60;;;;;;5013259;28;20186;-50
2023/04/06 00:45:40;;;;;;;8.27;5.63;;;6.40;34.70;;;;;;5014649;28;20194;-50
2023/04/06 00:48:07;;;;;;;7.97;5.53;;;6.40;34.60;;;;;;5014679;28;20901;-50
2023/04/06 00:50:33;;;;;;;7.20;5.13;;;6.40;34.30;;;;;;5014643;28;20647;-50
2023/04/06 00:52:59;;;;;;;7.65;4.85;;;6.50;34.50;;;;;;5014342;28;20269;-50
2023/04/06 00:55:26;;;;;;;7.68;5.22;;;6.40;34.60;;;;;;5014762;28;20190;-50
2023/04/06 00:57:52;;;;;;;7.47;4.72;;;6.40;34.30;;;;;;5014564;28;20642;-50
2023/04/06 01:00:18;;;;;;;4.95;4.32;;;6.50;34.40;;;;;;5014294;28;20213;-50
2023/04/06 01:02:46;;;;;;;6.10;4.93;;;6.50;34.60;;;;;;5014162;28;20175;-50
2023/04/06 01:05:11;;;;;;;6.75;5.03;;;6.50;34.50;;;;;;5014631;28;20467;-50
2023/04/06 01:07:37;;;;;;;6.93;5.00;;;6.40;34.30;;;;;;5014198;28;20190;-50
2023/04/06 01:10:04;;;;;;;6.17;4.83;;;6.50;34.30;;;;;;5014262;28;20421;-49
2023/04/06 01:12:30;;;;;;;6.80;4.93;;;6.50;34.60;;;;;;5013965;28;20197;-50
2023/04/06 01:14:55;;;;;;;4.83;4.33;;;6.50;34.60;;;;;;5014198;28;20273;-49
2023/04/06 01:17:21;;;;;;;7.43;5.27;;;6.50;34.70;;;;;;5014055;28;20429;-50
2023/04/06 01:19:49;;;;;;;7.30;5.13;;;6.50;34.50;;;;;;5014215;28;20453;-50
2023/04/06 01:22:18;;;;;;;11.32;5.05;;;6.50;34.30;;;;;;5013999;28;20498;-50
2023/04/06 01:24:44;;;;;;;7.18;5.85;;;6.50;34.30;;;;;;5013961;28;20266;-50
2023/04/06 01:27:10;;;;;;;6.10;4.80;;;6.50;34.50;;;;;;5013800;28;20282;-50
2023/04/06 01:29:36;;;;;;;7.35;5.30;;;6.50;34.30;;;;;;5013985;28;20749;-50
2023/04/06 01:32:02;;;;;;;8.30;4.70;;;6.50;34.50;;;;;;5013513;28;20221;-50
2023/04/06 01:34:28;;;;;;;6.20;4.53;;;6.50;34.50;;;;;;5013814;28;20405;-50
2023/04/06 01:36:54;;;;;;;7.00;4.90;;;6.50;34.60;;;;;;5013922;28;20441;-50
2023/04/06 01:39:20;;;;;;;5.10;4.43;;;6.50;34.50;;;;;;5013786;28;20883;-49
2023/04/06 01:41:47;;;;;;;7.03;5.40;;;6.40;34.30;;;;;;5013889;28;20405;-50
2023/04/06 01:44:16;;;;;;;8.77;4.97;;;6.40;34.40;;;;;;5013840;28;20436;-50
2023/04/06 01:46:41;;;;;;;7.72;5.40;;;6.40;34.50;;;;;;5013495;28;20219;-50
2023/04/06 01:49:07;;;;;;;5.40;4.70;;;6.40;34.60;;;;;;5013095;28;20206;-50
2023/04/06 01:51:33;;;;;;;6.13;5.53;;;6.40;34.60;;;;;;5013473;28;20174;-50
2023/04/06 01:53:59;;;;;;;6.90;4.63;;;6.30;34.80;;;;;;5013216;28;20193;-50
2023/04/06 01:56:25;;;;;;;8.93;4.90;;;6.30;34.70;;;;;;5013425;28;20216;-50
2023/04/06 01:58:51;;;;;;;9.73;4.50;;;6.30;34.90;;;;;;5013559;28;20346;-50
2023/04/06 02:01:16;;;;;;;11.73;5.03;;;6.30;35.10;;;;;;5013458;28;20631;-50
2023/04/06 02:03:42;;;;;;;7.20;4.80;;;6.20;35.20;;;;;;5013054;28;20905;-51
2023/04/06 02:06:08;;;;;;;7.17;4.67;;;6.20;35.10;;;;;;5013092;28;20564;-50
2023/04/06 02:08:34;;;;;;;9.63;6.17;;;6.20;35.10;;;;;;5013176;28;20559;-50
2023/04/06 02:11:00;;;;;;;10.23;4.60;;;6.20;35.00;;;;;;5028852;23;20480;-50
2023/04/06 02:13:26;;;;;;;5.73;4.40;;;6.20;35.10;;;;;;5032028;28;20180;-50
2023/04/06 02:15:52;;;;;;;8.33;6.07;;;6.20;35.30;;;;;;5032683;28;20178;-50
2023/04/06 02:18:18;;;;;;;9.63;5.23;;;6.20;35.20;;;;;;5032820;28;20459;-49
2023/04/06 02:20:44;;;;;;;7.43;4.85;;;6.20;35.10;;;;;;5032734;28;20196;-49
2023/04/06 02:23:11;;;;;;;10.75;5.22;;;6.20;34.90;;;;;;5032617;28;20201;-50
2023/04/06 02:25:36;;;;;;;6.40;4.75;;;6.20;34.80;;;;;;5032661;28;20249;-50
2023/04/06 02:28:02;;;;;;;5.33;4.83;;;6.10;34.80;;;;;;5032738;28;20698;-50
2023/04/06 02:30:29;;;;;;;7.33;5.20;;;6.10;34.70;;;;;;5032472;28;20784;-50
2023/04/06 02:32:55;;;;;;;7.82;5.93;;;6.10;34.80;;;;;;5032171;28;20409;-50
2023/04/06 02:35:21;;;;;;;4.40;4.00;;;6.10;34.70;;;;;;5032443;28;20625;-50
2023/04/06 02:37:47;;;;;;;8.38;5.38;;;6.10;34.50;;;;;;5032385;28;20253;-50
2023/04/06 02:40:14;;;;;;;4.97;4.33;;;6.10;34.50;;;;;;5032498;28;20264;-50
2023/04/06 02:42:40;;;;;;;6.22;4.65;;;6.10;34.60;;;;;;5032427;28;20760;-50
2023/04/06 02:45:06;;;;;;;7.13;4.53;;;6.00;34.80;;;;;;5032575;28;20268;-49
2023/04/06 02:47:33;;;;;;;7.40;6.20;;;6.00;34.80;;;;;;5032296;28;20761;-50
2023/04/06 02:49:58;;;;;;;8.02;4.38;;;5.90;34.60;;;;;;5032161;28;20174;-50
2023/04/06 02:52:24;;;;;;;5.67;5.00;;;5.90;34.90;;;;;;5031980;28;20173;-50
2023/04/06 02:54:51;;;;;;;6.22;4.28;;;5.80;34.70;;;;;;5032193;28;20554;-50
2023/04/06 02:57:17;;;;;;;8.18;5.30;;;5.80;34.70;;;;;;5032181;28;20641;-50
2023/04/06 02:59:42;;;;;;;6.65;3.90;;;5.70;34.80;;;;;;5031320;28;20205;-50
2023/04/06 03:02:08;;;;;;;6.70;5.00;;;5.70;34.80;;;;;;5031886;28;20185;-49
2023/04/06 03:04:34;;;;;;;8.57;4.53;;;5.70;34.70;;;;;;5032309;28;20588;-50
2023/04/06 03:07:00;;;;;;;6.47;5.60;;;5.70;34.50;;;;;;5032105;28;20166;-50
2023/04/06 03:09:27;;;;;;;6.85;5.97;;;5.70;34.90;;;;;;5032085;28;20409;-49
2023/04/06 03:11:52;;;;;;;5.72;4.30;;;5.60;34.70;;;;;;5031700;28;20221;-49
2023/04/06 03:14:21;;;;;;;8.67;4.83;;;5.60;34.70;;;;;;5032088;28;20173;-50
2023/04/06 03:16:48;;;;;;;6.25;5.25;;;5.60;34.70;;;;;;5031887;28;20515;-50
2023/04/06 03:19:15;;;;;;;6.32;4.80;;;5.60;34.80;;;;;;5031768;28;20209;-50
2023/04/06 03:21:42;;;;;;;6.88;4.57;;;5.50;34.70;;;;;;5031740;28;20200;-50
2023/04/06 03:24:08;;;;;;;5.15;4.18;;;5.50;34.70;;;;;;5031906;28;20257;-50
2023/04/06 03:26:34;;;;;;;5.00;3.50;;;5.50;34.80;;;;;;5031939;28;20166;-50
2023/04/06 03:29:00;;;;;;;8.75;4.85;;;5.40;35.00;;;;;;5031835;28;20178;-50
2023/04/06 03:31:26;;;;;;;7.33;4.70;;;5.40;35.10;;;;;;5031688;28;20340;-50
2023/04/06 03:33:52;;;;;;;7.57;4.93;;;5.30;35.00;;;;;;5031600;28;20412;-50
2023/04/06 03:36:18;;;;;;;5.67;4.20;;;5.30;35.00;;;;;;5031760;28;20174;-49
2023/04/06 03:38:44;;;;;;;6.37;4.50;;;5.30;35.00;;;;;;5031624;28;20590;-50
2023/04/06 03:41:10;;;;;;;5.60;4.40;;;5.30;34.90;;;;;;5031791;28;20445;-50
2023/04/06 03:43:36;;;;;;;5.55;4.20;;;5.30;34.80;;;;;;5031491;28;20417;-50
2023/04/06 03:46:02;;;;;;;7.53;4.00;;;5.30;34.60;;;;;;5031602;28;20186;-49
2023/04/06 03:48:27;;;;;;;7.53;4.70;;;5.30;34.70;;;;;;5031928;28;20413;-50
2023/04/06 03:50:53;;;;;;;5.80;5.20;;;5.30;34.70;;;;;;5031721;28;20662;-49
2023/04/06 03:53:19;;;;;;;10.03;4.40;;;5.30;34.90;;;;;;5031608;28;20544;-49
2023/04/06 03:55:45;;;;;;;8.73;4.22;;;5.20;34.60;;;;;;5031615;28;20638;-50
2023/04/06 03:58:10;;;;;;;6.00;4.03;;;5.20;34.60;;;;;;5031568;28;20257;-50
2023/04/06 04:00:36;;;;;;;7.50;5.20;;;5.20;34.50;;;;;;5030221;28;20193;-50
2023/04/06 04:03:02;;;;;;;10.23;4.43;;;5.20;35.00;;;;;;5031301;28;20212;-50
2023/04/06 04:05:28;;;;;;;5.23;4.60;;;5.10;34.80;;;;;;5031807;28;20170;-49
2023/04/06 04:07:55;;;;;;;6.60;4.75;;;5.10;34.90;;;;;;5031534;28;20470;-49
2023/04/06 04:10:20;;;;;;;6.30;5.00;;;5.00;34.80;;;;;;5030437;28;20292;-50
2023/04/06 04:12:46;;;;;;;11.87;6.63;;;5.00;35.30;;;;;;5035165;28;20196;-49
2023/04/06 04:15:12;;;;;;;12.27;6.80;;;4.90;35.40;;;;;;5035250;28;20184;-49
2023/04/06 04:17:38;;;;;;;9.47;5.60;;;4.90;35.80;;;;;;5035189;28;20244;-49
2023/04/06 04:20:04;;;;;;;7.10;4.63;;;4.90;35.40;;;;;;5035257;28;20883;-50
2023/04/06 04:22:29;;;;;;;6.70;5.50;;;4.90;35.30;;;;;;5035045;28;20209;-50
2023/04/06 04:24:55;;;;;;;9.97;6.00;;;4.90;35.30;;;;;;5035361;28;20198;-52
2023/04/06 04:27:21;;;;;;;7.70;5.30;;;4.80;35.60;;;;;;5035186;28;20618;-50
2023/04/06 04:29:47;;;;;;;8.90;6.20;;;4.80;35.40;;;;;;5034634;28;20208;-50
2023/04/06 04:32:13;;;;;;;8.57;5.80;;;4.80;35.40;;;;;;5034310;28;20749;-50
2023/04/06 04:34:42;;;;;;;9.33;6.23;;;4.80;35.50;;;;;;5035048;28;20205;-49
2023/04/06 04:37:07;;;;;;;7.95;5.40;;;4.80;35.30;;;;;;5034629;28;20855;-50
2023/04/06 04:39:33;;;;;;;9.37;6.13;;;4.70;35.60;;;;;;5034888;28;20229;-50
2023/04/06 04:41:59;;;;;;;14.13;5.70;;;4.70;35.60;;;;;;5034249;28;20802;-50
2023/04/06 04:44:25;;;;;;;12.93;5.80;;;4.80;35.60;;;;;;5034469;28;20202;-50
2023/04/06 04:46:51;;;;;;;9.30;5.83;;;4.70;35.70;;;;;;5034746;28;20412;-50
2023/04/06 04:49:17;;;;;;;8.25;5.55;;;4.70;36.30;;;;;;5034466;28;20166;-50
2023/04/06 04:51:43;;;;;;;7.93;6.63;;;4.70;35.70;;;;;;5034357;28;20190;-49
2023/04/06 04:54:08;;;;;;;10.77;6.77;;;4.70;35.70;;;;;;5034400;28;20408;-50
2023/04/06 04:56:34;;;;;;;8.50;5.40;;;4.70;35.70;;;;;;5034364;28;20174;-49
2023/04/06 04:59:00;;;;;;;7.70;5.80;;;4.70;35.90;;;;;;5034075;28;20208;-49
2023/04/06 05:01:26;;;;;;;21.83;6.67;;;4.70;36.00;;;;;;5032817;28;20201;-48
2023/04/06 05:03:51;;;;;;;13.13;7.47;;;4.70;36.00;;;;;;5033925;28;20185;-49
2023/04/06 05:06:18;;;;;;;18.73;7.03;;;4.80;36.20;;;;;;5034120;28;20201;-52
2023/04/06 05:08:44;;;;;;;11.65;6.88;;;4.80;36.20;;;;;;5034093;28;20526;-48
2023/04/06 05:11:10;;;;;;;9.37;5.87;;;4.80;36.10;;;;;;5034071;28;20224;-49
2023/04/06 05:13:36;;;;;;;12.77;7.18;;;4.90;36.20;;;;;;5033690;28;20588;-51
2023/04/06 05:16:02;;;;;;;11.80;6.07;;;5.00;36.20;;;;;;5033854;28;20228;-49
2023/04/06 05:18:28;;;;;;;11.80;5.97;;;5.00;36.30;;;;;;5034120;28;20460;-49
2023/04/06 05:20:54;;;;;;;10.57;6.70;;;5.00;36.30;;;;;;5033755;28;20425;-49
2023/04/06 05:23:20;;;;;;;15.98;6.25;;;5.10;36.40;;;;;;5032678;28;20413;-52
2023/04/06 05:25:46;;;;;;;11.55;7.57;;;5.10;36.40;;;;;;5033708;28;20876;-49
2023/04/06 05:28:13;;;;;;;20.77;6.83;;;5.20;36.40;;;;;;5034004;28;20264;-51
2023/04/06 05:30:40;;;;;;;11.93;7.35;;;5.30;36.50;;;;;;5033850;28;20190;-49
2023/04/06 05:33:06;;;;;;;11.27;6.75;;;5.40;36.50;;;;;;5033313;28;20180;-49
2023/04/06 05:35:31;;;;;;;15.40;6.53;;;5.40;36.50;;;;;;5032278;28;20169;-51
2023/04/06 05:37:57;;;;;;;14.77;7.83;;;5.50;36.40;;;;;;5033550;28;20412;-49
2023/04/06 05:40:23;;;;;;;11.60;6.70;;;5.50;36.40;;;;;;5033337;28;20204;-51
2023/04/06 05:42:49;;;;;;;12.77;7.97;;;5.70;36.40;;;;;;5033416;28;20412;-49
2023/04/06 05:45:18;;;;;;;9.60;7.17;;;5.80;36.70;;;;;;5033255;28;20177;-48
2023/04/06 05:47:44;;;;;;;8.00;6.72;;;5.90;36.60;;;;;;5033376;28;20769;-49
2023/04/06 05:50:11;;;;;;;9.32;7.50;;;6.00;36.70;;;;;;5033211;28;20265;-51
2023/04/06 05:52:37;;;;;;;13.63;6.80;;;6.10;36.80;;;;;;5033045;28;20181;-49
2023/04/06 05:55:04;;;;;;;16.20;7.70;;;6.20;36.50;;;;;;5033147;28;20182;-48
2023/04/06 05:57:30;;;;;;;11.43;7.30;;;6.30;36.70;;;;;;5033325;28;20456;-51
2023/04/06 05:59:56;;;;;;;13.97;8.70;;;6.40;36.70;;;;;;5032937;28;20233;-49
2023/04/06 06:02:22;;;;;;;8.73;6.47;;;6.40;36.40;;;;;;5032832;28;20420;-49
2023/04/06 06:04:47;;;;;;;8.52;5.93;;;6.50;36.40;;;;;;5033098;28;20169;-51
2023/04/06 06:07:15;;;;;;;9.97;6.80;;;6.50;36.70;;;;;;5033075;28;20174;-51
2023/04/06 06:09:40;;;;;;;7.00;6.30;;;6.60;36.40;;;;;;5032889;28;20416;-49
2023/04/06 06:12:07;;;;;;;9.27;6.50;;;6.60;36.60;;;;;;5032381;28;20213;-51
2023/04/06 06:14:33;;;;;;;13.25;7.20;;;6.70;36.60;;;;;;5032796;28;20438;-52
2023/04/06 06:16:59;;;;;;;12.43;8.52;;;6.70;36.90;;;;;;5032948;28;20292;-49
2023/04/06 06:19:25;;;;;;;14.60;7.50;;;6.70;36.50;;;;;;5032694;28;20728;-49
2023/04/06 06:21:50;;;;;;;8.43;6.73;;;6.80;36.50;;;;;;5032467;28;20921;-49
2023/04/06 06:24:16;;;;;;;8.70;7.40;;;6.90;36.50;;;;;;5032843;28;20174;-49
2023/04/06 06:26:42;;;;;;;12.20;7.87;;;7.00;36.50;;;;;;5032623;28;20466;-50
2023/04/06 06:29:09;;;;;;;15.80;12.13;;;7.00;36.20;;;;;;5032697;28;20228;-49
2023/04/06 06:31:35;;;;;;;9.95;8.52;;;7.10;36.10;;;;;;5032502;28;20214;-49
2023/04/06 06:34:01;;;;;;;12.10;7.53;;;7.10;36.10;;;;;;5032130;28;20170;-49
2023/04/06 06:36:27;;;;;;;8.57;7.40;;;7.20;35.80;;;;;;5032401;28;20416;-49
2023/04/06 06:38:53;;;;;;;9.02;7.40;;;7.30;36.20;;;;;;5032361;28;20294;-50
2023/04/06 06:41:19;;;;;;;12.37;8.03;;;7.50;36.00;;;;;;5032293;28;20277;-52
2023/04/06 06:43:45;;;;;;;8.57;7.67;;;7.60;35.80;;;;;;5032114;28;20408;-50
2023/04/06 06:46:11;;;;;;;8.23;7.30;;;7.80;35.80;;;;;;5032436;28;20760;-49
2023/04/06 06:48:37;;;;;;;13.30;7.07;;;7.90;35.30;;;;;;5032429;28;20262;-51
2023/04/06 06:51:02;;;;;;;10.10;7.83;;;8.00;35.40;;;;;;5032147;28;20676;-51
2023/04/06 06:53:28;;;;;;;10.57;7.93;;;8.20;35.10;;;;;;5031927;28;20405;-49
2023/04/06 06:55:54;;;;;;;9.17;7.10;;;8.30;34.70;;;;;;5032180;28;20413;-50
2023/04/06 06:58:20;;;;;;;11.48;7.45;;;8.50;34.70;;;;;;5032218;28;20475;-49
2023/04/06 07:00:46;;;;;;;9.60;6.57;;;8.60;34.60;;;;;;5032176;28;20217;-49
2023/04/06 07:03:12;;;;;;;8.60;7.32;;;8.70;33.60;;;;;;5031884;28;20479;-51
2023/04/06 07:05:38;;;;;;;8.23;7.27;;;8.70;33.30;;;;;;5032315;28;20515;-52
2023/04/06 07:08:04;;;;;;;8.17;6.80;;;8.70;33.70;;;;;;5032042;28;20828;-51
2023/04/06 07:10:30;;;;;;;8.60;6.70;;;8.90;33.50;;;;;;5031824;28;20590;-51
2023/04/06 07:12:56;;;;;;;8.60;6.80;;;9.80;33.90;;;;;;5031752;28;20256;-49
2023/04/06 07:15:22;;;;;;;11.33;7.70;;;9.20;33.00;;;;;;5031954;28;20405;-51
2023/04/06 07:17:48;;;;;;;11.37;6.20;;;9.30;33.10;;;;;;5032328;28;20421;-52
2023/04/06 07:20:14;;;;;;;8.83;6.90;;;9.50;33.00;;;;;;5031860;28;20325;-49
2023/04/06 07:22:42;;;;;;;9.20;6.10;;;9.60;32.30;;;;;;5031588;28;20166;-51
2023/04/06 07:25:08;;;;;;;8.00;7.20;;;9.80;32.60;;;;;;5031921;28;20166;-50
2023/04/06 07:27:34;;;;;;;10.35;7.10;;;9.90;32.40;;;;;;5032078;28;20179;-51
2023/04/06 07:30:00;;;;;;;9.63;6.63;;;10.10;32.30;;;;;;5031861;28;20640;-52
2023/04/06 07:32:25;;;;;;;7.90;6.23;;;10.20;31.60;;;;;;5031782;28;20427;-50
2023/04/06 07:34:51;;;;;;;10.07;7.43;;;10.30;31.30;;;;;;5032407;28;20176;-52
2023/04/06 07:37:17;;;;;;;9.53;5.90;;;10.50;30.90;;;;;;5032208;28;20261;-51
2023/04/06 07:39:43;;;;;;;7.70;6.13;;;10.60;31.20;;;;;;5032232;28;20471;-49
2023/04/06 07:42:09;;;;;;;7.80;7.00;;;10.80;30.80;;;;;;5031664;28;20970;-52
2023/04/06 07:44:35;;;;;;;16.83;7.60;;;10.80;29.80;;;;;;5031675;28;20768;-51
2023/04/06 07:47:01;;;;;;;8.43;6.37;;;10.80;29.70;;;;;;5034888;28;20259;-49
2023/04/06 07:49:27;;;;;;;8.07;6.07;;;11.00;30.20;;;;;;5035715;28;20173;-51
2023/04/06 07:51:53;;;;;;;7.43;5.93;;;11.10;30.30;;;;;;5035209;28;21005;-49
2023/04/06 07:54:19;;;;;;;9.32;7.13;;;11.40;29.80;;;;;;5035808;28;20255;-52
2023/04/06 07:56:45;;;;;;;9.27;6.10;;;11.50;30.50;;;;;;5035423;28;20609;-50
2023/04/06 07:59:11;;;;;;;9.60;7.33;;;11.70;29.80;;;;;;5035530;28;20202;-52
2023/04/06 08:01:37;;;;;;;9.48;6.50;;;12.00;28.50;;;;;;5035209;28;20190;-51
2023/04/06 08:04:03;;;;;;;8.95;6.53;;;12.00;28.30;;;;;;5035084;28;20178;-51
2023/04/06 08:06:29;;;;;;;8.30;6.70;;;12.20;27.80;;;;;;5035237;28;20176;-49
2023/04/06 08:08:54;;;;;;;7.95;6.82;;;12.10;26.30;;;;;;5035129;28;20409;-51
2023/04/06 08:11:21;;;;;;;7.77;6.00;;;12.10;26.70;;;;;;5034977;28;20271;-51
2023/04/06 08:13:46;;;;;;;13.57;6.72;;;12.20;28.10;;;;;;5035330;28;20188;-52
2023/04/06 08:16:12;;;;;;;7.50;6.40;;;12.50;28.40;;;;;;5035029;28;20178;-52
2023/04/06 08:18:38;;;;;;;10.03;6.40;;;12.70;26.50;;;;;;5034922;28;20201;-51
2023/04/06 08:21:04;;;;;;;9.67;7.10;;;12.90;26.10;;;;;;5034665;28;20428;-49
2023/04/06 08:23:30;;;;;;;9.10;6.73;;;13.10;28.30;;;;;;5034690;28;20490;-53
2023/04/06 08:25:56;;;;;;;13.03;8.67;;;13.40;27.60;;;;;;5034996;28;20403;-52
2023/04/06 08:28:22;;;;;;;9.40;6.40;;;13.40;24.10;;;;;;5035037;28;20245;-49
2023/04/06 08:30:48;;;;;;;8.20;6.23;;;13.40;24.80;;;;;;5034670;28;20436;-52
2023/04/06 08:33:13;;;;;;;8.67;6.60;;;13.50;24.80;;;;;;5034447;28;20245;-49
2023/04/06 08:35:39;;;;;;;8.03;7.17;;;13.50;25.20;;;;;;5034693;28;20404;-52
2023/04/06 08:38:06;;;;;;;6.28;5.38;;;13.70;24.20;;;;;;5034646;28;20228;-49
2023/04/06 08:40:43;;;;;;;11.00;7.00;;;13.80;23.70;;;;;;5034419;28;20293;-52
2023/04/06 08:43:14;;;;;;;8.60;6.20;;;14.00;22.70;;;;;;5034664;28;20212;-50
2023/04/06 08:45:40;;;;;;;8.45;6.30;;;14.10;23.30;;;;;;5034601;28;20177;-51
2023/04/06 08:48:06;;;;;;;7.55;4.53;;;14.20;22.20;;;;;;5034338;28;20166;-50
2023/04/06 08:50:33;;;;;;;6.63;5.95;;;14.30;23.10;;;;;;5034333;28;20202;-52
2023/04/06 08:53:00;;;;;;;9.38;6.55;;;14.50;22.00;;;;;;5034255;28;20205;-53
2023/04/06 08:55:26;;;;;;;6.85;5.45;;;14.70;20.20;;;;;;5034241;28;20189;-50
2023/04/06 08:57:55;;;;;;;6.90;6.20;;;14.60;19.00;;;;;;5032958;28;20181;-50
2023/04/06 09:00:21;;;;;;;7.80;5.30;;;14.50;20.40;;;;;;5034051;28;20210;-52
2023/04/06 09:02:49;;;;;;;6.40;5.50;;;14.60;22.80;;;;;;5033935;28;20166;-51
2023/04/06 09:05:16;;;;;;;6.47;4.60;;;14.80;21.40;;;;;;5034364;28;20189;-51
2023/04/06 09:07:42;;;;;;;7.55;5.65;;;15.00;21.90;;;;;;5034398;28;20809;-50
2023/04/06 09:10:08;;;;;;;6.07;5.47;;;15.30;22.00;;;;;;5033918;28;20185;-51
2023/04/06 09:12:34;;;;;;;7.45;4.70;;;15.60;21.30;;;;;;5033739;28;20185;-50
2023/04/06 09:15:01;;;;;;;5.90;5.38;;;15.80;22.60;;;;;;5033951;28;20231;-53
2023/04/06 09:17:33;;;;;;;8.10;5.03;;;16.10;22.40;;;;;;5032731;28;20193;-51
2023/04/06 09:20:03;;;;;;;5.53;4.63;;;16.30;22.40;;;;;;5033851;28;20339;-53
2023/04/06 09:22:41;;;;;;;6.75;4.32;;;16.50;19.30;;;;;;5033609;28;20220;-50
2023/04/06 09:25:10;;;;;;;6.10;5.45;;;16.60;18.30;;;;;;5033703;28;20184;-51
2023/04/06 09:27:37;;;;;;;5.75;5.05;;;16.60;18.20;;;;;;5033566;28;20190;-51
2023/04/06 09:30:15;;;;;;;7.57;5.72;;;16.70;17.40;;;;;;5033597;28;20181;-52
2023/04/06 09:32:59;;;;;;;5.45;4.30;;;16.50;15.90;;;;;;5033381;28;20162;-51
2023/04/06 09:35:29;;;;;;;4.93;3.95;;;16.40;16.40;;;;;;5033581;28;20200;-50
2023/04/06 09:37:56;;;;;;;5.00;4.25;;;16.30;17.10;;;;;;5033751;28;20170;-53
2023/04/06 09:40:22;;;;;;;8.85;4.72;;;16.40;15.70;;;;;;5033366;28;20292;-51
2023/04/06 09:42:51;;;;;;;9.50;5.13;;;16.40;15.60;;;;;;5033243;28;20261;-50
2023/04/06 09:45:17;;;;;;;5.22;4.38;;;16.50;16.20;;;;;;5033306;28;20436;-51
2023/04/06 09:47:45;;;;;;;6.07;5.57;;;16.50;16.00;;;;;;5033432;28;20209;-51
2023/04/06 09:50:12;;;;;;;6.00;4.07;;;16.60;15.30;;;;;;5033252;28;20413;-51
2023/04/06 09:52:50;;;;;;;4.95;4.18;;;16.30;14.90;;;;;;5033037;28;20174;-51
2023/04/06 09:55:42;;;;;;;9.23;4.40;;;16.30;15.70;;;;;;5033169;28;20161;-51
2023/04/06 09:58:15;;;;;;;6.30;4.40;;;16.50;17.00;;;;;;5033289;28;20184;-51
2023/04/06 10:01:20;;;;;;;5.38;3.95;;;16.80;16.50;;;;;;5032978;28;20209;-51
2023/04/06 10:03:56;;;;;;;6.00;4.85;;;17.10;18.60;;;;;;4971723;28;20285;-51
2023/04/06 10:06:25;;;;;;;6.40;5.05;;;17.50;16.70;;;;;;4972031;28;20176;-51
2023/04/06 10:08:54;;;;;;;5.40;4.90;;;16.90;17.10;;;;;;4971633;28;20262;-51
2023/04/06 10:11:20;;;;;;;5.43;4.93;;;18.10;17.30;;;;;;4971534;28;20229;-51
2023/04/06 10:13:48;;;;;;;4.03;3.63;;;18.40;16.50;;;;;;4971588;28;20247;-52
2023/04/06 10:16:15;;;;;;;4.88;4.38;;;18.40;12.90;;;;;;4971757;28;20690;-54
2023/04/06 10:18:46;;;;;;;7.55;4.10;;;18.30;14.50;;;;;;4971602;28;20280;-51
2023/04/06 10:21:17;;;;;;;6.40;4.13;;;18.40;11.20;;;;;;4971606;28;20783;-53
2023/04/06 10:23:53;;;;;;;6.47;4.45;;;18.10;12.90;;;;;;4971276;28;20273;-51
2023/04/06 10:26:22;;;;;;;3.95;3.08;;;18.00;12.60;;;;;;4971622;28;20182;-53
2023/04/06 10:28:49;;;;;;;5.35;4.60;;;18.00;15.10;;;;;;4971507;28;20191;-51
2023/04/06 10:31:23;;;;;;;7.75;3.95;;;18.10;13.10;;;;;;4971393;28;20258;-52
2023/04/06 10:33:56;;;;;;;5.78;3.65;;;18.00;15.30;;;;;;4971422;28;20179;-54
2023/04/06 10:36:26;;;;;;;4.38;3.40;;;18.20;16.50;;;;;;4971282;28;20172;-51
2023/04/06 10:39:00;;;;;;;6.13;3.60;;;18.30;16.70;;;;;;5032107;28;20681;-51
2023/04/06 10:41:40;;;;;;;4.93;3.67;;;18.50;16.90;;;;;;5032395;28;20193;-52
2023/04/06 10:44:06;;;;;;;4.05;3.15;;;18.90;16.60;;;;;;5032198;28;20155;-51
2023/04/06 10:46:33;;;;;;;7.93;5.97;;;19.10;18.10;;;;;;5032357;28;20188;-52
2023/04/06 10:49:20;;;;;;;4.90;4.38;;;19.20;16.80;;;;;;5032542;28;20492;-52
2023/04/06 10:51:53;;;;;;;5.20;3.90;;;19.20;15.30;;;;;;5032086;28;20280;-53
2023/04/06 10:54:21;;;;;;;3.83;3.42;;;18.90;15.90;;;;;;5032091;28;20260;-51
2023/04/06 10:56:47;;;;;;;3.92;3.47;;;18.60;16.20;;;;;;5032248;28;20194;-52
2023/04/06 10:59:13;;;;;;;4.00;3.60;;;18.40;17.10;;;;;;5032190;28;20197;-53
2023/04/06 11:01:44;;;;;;;6.30;5.17;;;18.20;17.00;;;;;;5032059;28;20224;-51
2023/04/06 11:04:13;;;;;;;5.68;3.70;;;18.10;15.10;;;;;;5032111;28;20170;-51
2023/04/06 11:06:39;;;;;;;5.32;4.15;;;17.80;16.30;;;;;;5032000;28;20177;-53
2023/04/06 11:09:05;;;;;;;5.80;4.83;;;17.60;17.30;;;;;;5032341;28;20185;-51
2023/04/06 11:11:31;;;;;;;8.38;3.95;;;17.50;16.90;;;;;;5031849;28;20214;-53
2023/04/06 11:13:58;;;;;;;6.60;4.03;;;17.40;17.10;;;;;;5031731;28;20180;-53
2023/04/06 11:16:26;;;;;;;5.15;4.15;;;17.30;17.40;;;;;;5032051;28;20705;-51
2023/04/06 11:18:57;;;;;;;5.28;4.50;;;17.30;17.30;;;;;;5031811;28;20202;-53
2023/04/06 11:21:39;;;;;;;4.93;3.88;;;17.30;17.90;;;;;;5034084;28;20181;-50
2023/04/06 11:24:15;;;;;;;4.15;3.13;;;17.30;16.40;;;;;;5036056;28;20584;-53
2023/04/06 11:26:45;;;;;;;4.93;3.90;;;17.10;14.50;;;;;;5036285;28;20498;-53
2023/04/06 11:29:16;;;;;;;4.32;3.92;;;16.80;15.20;;;;;;5036411;28;20201;-53
2023/04/06 11:31:46;;;;;;;4.97;3.67;;;16.70;16.50;;;;;;5036187;28;20209;-53
2023/04/06 11:34:14;;;;;;;4.47;4.07;;;16.80;17.60;;;;;;5036042;28;20198;-53
2023/04/06 11:36:44;;;;;;;10.10;9.07;;;17.00;18.20;;;;;;5035916;28;20174;-54
2023/04/06 11:39:11;;;;;;;6.45;3.97;;;17.50;18.10;;;;;;5035661;28;20197;-51
2023/04/06 11:41:37;;;;;;;7.45;4.55;;;18.00;16.90;;;;;;5035769;28;20189;-52
2023/04/06 11:44:03;;;;;;;5.30;4.03;;;18.30;15.20;;;;;;5035469;28;20680;-53
2023/04/06 11:46:29;;;;;;;10.53;5.20;;;18.70;15.60;;;;;;5035706;28;20170;-53
2023/04/06 11:49:00;;;;;;;5.27;4.30;;;19.10;16.20;;;;;;5035818;28;20404;-53
2023/04/06 11:51:26;;;;;;;4.13;3.33;;;19.50;14.60;;;;;;5035327;28;20433;-53
2023/04/06 11:53:52;;;;;;;4.93;4.43;;;19.60;15.20;;;;;;5035251;28;20170;-53
2023/04/06 11:56:29;;;;;;;4.85;4.15;;;20.00;16.40;;;;;;5035430;28;20174;-50
2023/04/06 11:58:56;;;;;;;4.70;4.07;;;20.30;13.90;;;;;;5035327;28;20201;-53
2023/04/06 12:01:22;;;;;;;6.13;4.03;;;20.30;13.50;;;;;;5035613;28;20198;-52
2023/04/06 12:03:48;;;;;;;7.43;5.88;;;20.30;12.60;;;;;;5035013;28;20194;-53
2023/04/06 12:06:15;;;;;;;6.38;5.20;;;20.30;11.90;;;;;;5035180;28;20177;-53
2023/04/06 12:08:41;;;;;;;5.18;4.78;;;20.00;11.40;;;;;;5035204;28;20170;-53
2023/04/06 12:11:06;;;;;;;5.07;4.60;;;19.90;12.70;;;;;;5035091;28;20284;-53
2023/04/06 12:13:32;;;;;;;8.13;5.10;;;20.00;12.10;;;;;;5034955;28;20257;-53
2023/04/06 12:15:58;;;;;;;9.57;4.83;;;19.90;13.60;;;;;;5035124;28;20587;-53
2023/04/06 12:18:25;;;;;;;7.67;5.00;;;20.10;15.00;;;;;;5034913;28;20174;-53
2023/04/06 12:20:51;;;;;;;6.10;4.60;;;20.40;14.70;;;;;;5035188;28;20267;-51
2023/04/06 12:23:18;;;;;;;5.75;4.60;;;20.70;15.20;;;;;;5034827;28;20221;-53
2023/04/06 12:25:44;;;;;;;6.72;5.35;;;21.00;15.10;;;;;;5035131;28;20219;-52
2023/04/06 12:28:11;;;;;;;6.47;5.10;;;21.30;14.70;;;;;;5034860;28;20169;-51
2023/04/06 12:30:37;;;;;;;4.90;4.50;;;21.50;12.10;;;;;;5034723;28;20213;-53
2023/04/06 12:33:03;;;;;;;22.90;15.27;;;21.50;14.90;;;;;;5034109;28;20545;-50
2023/04/06 12:35:33;;;;;;;4.83;4.37;;;21.70;14.50;;;;;;5034707;28;20177;-53
2023/04/06 12:37:58;;;;;;;6.35;5.65;;;21.80;14.70;;;;;;5034646;28;20397;-53
2023/04/06 12:40:24;;;;;;;6.00;5.30;;;22.00;15.00;;;;;;5034843;28;20213;-53
2023/04/06 12:42:50;;;;;;;6.00;4.73;;;22.20;13.50;;;;;;5034593;28;20568;-53
2023/04/06 12:45:16;;;;;;;5.57;5.00;;;22.20;14.60;;;;;;5034553;28;20911;-53
2023/04/06 12:47:42;;;;;;;6.00;5.50;;;22.40;14.90;;;;;;5033211;28;20642;-51
2023/04/06 12:50:08;;;;;;;5.43;4.93;;;22.50;14.80;;;;;;5034387;28;20458;-53